sensor_id;sensor_type;location;lat;lon;timestamp;temperature;humidity
31133;DHT22;17779;50.942;4.026;2022-07-29T00:00:40;20.40;99.90
31133;DHT22;17779;50.942;4.026;2022-07-29T00:03:07;20.40;99.90
31133;DHT22;17779;50.942;4.026;2022-07-29T00:05:32;20.40;99.90
31133;DHT22;17779;50.942;4.026;2022-07-29T00:07:58;20.30;99.90
31133;DHT22;17779;50.942;4.026;2022-07-29T00:10:24;20.40;99.90
31133;DHT22;17779;50.942;4.026;2022-07-29T00:12:49;20.20;99.90
31133;DHT22;17779;50.942;4.026;2022-07-29T00:15:15;20.20;99.90
31133;DHT22;17779;50.942;4.026;2022-07-29T00:17:41;20.20;99.90
31133;DHT22;17779;50.942;4.026;2022-07-29T00:20:07;20.20;99.90
31133;DHT22;17779;50.942;4.026;2022-07-29T00:22:32;20.20;99.90
31133;DHT22;17779;50.942;4.026;2022-07-29T00:24:58;20.10;99.90
31133;DHT22;17779;50.942;4.026;2022-07-29T00:27:24;20.10;99.90
31133;DHT22;17779;50.942;4.026;2022-07-29T00:29:49;20.00;99.90
31133;DHT22;17779;50.942;4.026;2022-07-29T00:32:15;20.00;99.90
31133;DHT22;17779;50.942;4.026;2022-07-29T00:34:41;20.10;99.90
31133;DHT22;17779;50.942;4.026;2022-07-29T00:37:25;20.10;99.90
31133;DHT22;17779;50.942;4.026;2022-07-29T00:39:51;19.90;99.90
31133;DHT22;17779;50.942;4.026;2022-07-29T00:42:17;19.90;99.90
31133;DHT22;17779;50.942;4.026;2022-07-29T00:44:43;19.80;99.90
31133;DHT22;17779;50.942;4.026;2022-07-29T00:47:09;19.90;99.90
31133;DHT22;17779;50.942;4.026;2022-07-29T00:49:35;19.80;99.90
31133;DHT22;17779;50.942;4.026;2022-07-29T00:52:02;19.80;99.90
31133;DHT22;17779;50.942;4.026;2022-07-29T00:54:28;19.80;99.90
31133;DHT22;17779;50.942;4.026;2022-07-29T00:56:55;19.80;99.90
31133;DHT22;17779;50.942;4.026;2022-07-29T00:59:21;19.70;99.90
31133;DHT22;17779;50.942;4.026;2022-07-29T01:01:47;19.70;99.90
31133;DHT22;17779;50.942;4.026;2022-07-29T01:04:13;19.70;99.90
31133;DHT22;17779;50.942;4.026;2022-07-29T01:06:38;19.60;99.90
31133;DHT22;17779;50.942;4.026;2022-07-29T01:09:04;19.70;99.90
31133;DHT22;17779;50.942;4.026;2022-07-29T01:11:30;19.60;99.90
31133;DHT22;17779;50.942;4.026;2022-07-29T01:13:56;19.60;99.90
31133;DHT22;17779;50.942;4.026;2022-07-29T01:16:27;19.60;99.90
31133;DHT22;17779;50.942;4.026;2022-07-29T01:18:56;19.60;99.90
31133;DHT22;17779;50.942;4.026;2022-07-29T01:21:31;19.50;99.90
31133;DHT22;17779;50.942;4.026;2022-07-29T01:26:34;19.30;99.90
31133;DHT22;17779;50.942;4.026;2022-07-29T01:29:02;19.20;99.90
31133;DHT22;17779;50.942;4.026;2022-07-29T01:31:39;19.10;99.90
31133;DHT22;17779;50.942;4.026;2022-07-29T01:34:07;19.00;99.90
31133;DHT22;17779;50.942;4.026;2022-07-29T01:39:07;19.00;99.90
31133;DHT22;17779;50.942;4.026;2022-07-29T01:41:34;18.80;99.90
31133;DHT22;17779;50.942;4.026;2022-07-29T01:44:10;18.80;99.90
31133;DHT22;17779;50.942;4.026;2022-07-29T01:46:38;18.60;99.90
31133;DHT22;17779;50.942;4.026;2022-07-29T01:49:15;18.60;99.90
31133;DHT22;17779;50.942;4.026;2022-07-29T01:51:44;18.60;99.90
31133;DHT22;17779;50.942;4.026;2022-07-29T01:54:19;18.60;99.90
31133;DHT22;17779;50.942;4.026;2022-07-29T01:56:47;18.40;99.90
31133;DHT22;17779;50.942;4.026;2022-07-29T01:59:13;18.40;99.90
31133;DHT22;17779;50.942;4.026;2022-07-29T02:01:41;18.50;99.90
31133;DHT22;17779;50.942;4.026;2022-07-29T02:04:09;18.50;99.90
31133;DHT22;17779;50.942;4.026;2022-07-29T02:06:36;18.60;99.90
31133;DHT22;17779;50.942;4.026;2022-07-29T02:09:02;18.70;99.90
31133;DHT22;17779;50.942;4.026;2022-07-29T02:11:29;18.70;99.90
31133;DHT22;17779;50.942;4.026;2022-07-29T02:13:56;18.70;99.90
31133;DHT22;17779;50.942;4.026;2022-07-29T02:16:22;18.60;99.90
31133;DHT22;17779;50.942;4.026;2022-07-29T02:18:50;18.60;99.90
31133;DHT22;17779;50.942;4.026;2022-07-29T02:21:24;18.40;99.90
31133;DHT22;17779;50.942;4.026;2022-07-29T02:23:51;18.30;99.90
31133;DHT22;17779;50.942;4.026;2022-07-29T02:26:21;18.20;99.90
31133;DHT22;17779;50.942;4.026;2022-07-29T02:28:49;18.30;99.90
31133;DHT22;17779;50.942;4.026;2022-07-29T02:31:17;18.20;99.90
31133;DHT22;17779;50.942;4.026;2022-07-29T02:33:44;18.10;99.90
31133;DHT22;17779;50.942;4.026;2022-07-29T02:36:11;18.00;99.90
31133;DHT22;17779;50.942;4.026;2022-07-29T02:38:36;18.20;99.90
31133;DHT22;17779;50.942;4.026;2022-07-29T02:41:20;18.20;99.90
31133;DHT22;17779;50.942;4.026;2022-07-29T02:43:48;18.10;99.90
31133;DHT22;17779;50.942;4.026;2022-07-29T02:46:17;18.10;99.90
31133;DHT22;17779;50.942;4.026;2022-07-29T02:48:55;18.10;99.90
31133;DHT22;17779;50.942;4.026;2022-07-29T02:51:23;17.90;99.90
31133;DHT22;17779;50.942;4.026;2022-07-29T02:53:51;17.80;99.90
31133;DHT22;17779;50.942;4.026;2022-07-29T02:56:19;17.80;99.90
31133;DHT22;17779;50.942;4.026;2022-07-29T02:58:54;17.80;99.90
31133;DHT22;17779;50.942;4.026;2022-07-29T03:01:20;17.80;99.90
31133;DHT22;17779;50.942;4.026;2022-07-29T03:03:46;17.80;99.90
31133;DHT22;17779;50.942;4.026;2022-07-29T03:06:13;17.70;99.90
31133;DHT22;17779;50.942;4.026;2022-07-29T03:08:40;17.60;99.90
31133;DHT22;17779;50.942;4.026;2022-07-29T03:11:07;17.50;99.90
31133;DHT22;17779;50.942;4.026;2022-07-29T03:13:34;17.50;99.90
31133;DHT22;17779;50.942;4.026;2022-07-29T03:16:00;17.50;99.90
31133;DHT22;17779;50.942;4.026;2022-07-29T03:18:26;17.50;99.90
31133;DHT22;17779;50.942;4.026;2022-07-29T03:20:52;17.40;99.90
31133;DHT22;17779;50.942;4.026;2022-07-29T03:23:18;17.30;99.90
31133;DHT22;17779;50.942;4.026;2022-07-29T03:25:45;17.40;99.90
31133;DHT22;17779;50.942;4.026;2022-07-29T03:28:11;17.50;99.90
31133;DHT22;17779;50.942;4.026;2022-07-29T03:30:37;17.60;99.90
31133;DHT22;17779;50.942;4.026;2022-07-29T03:33:02;17.70;99.90
31133;DHT22;17779;50.942;4.026;2022-07-29T03:35:28;17.80;99.90
31133;DHT22;17779;50.942;4.026;2022-07-29T03:37:55;17.70;99.90
31133;DHT22;17779;50.942;4.026;2022-07-29T03:41:05;17.70;99.90
31133;DHT22;17779;50.942;4.026;2022-07-29T03:43:09;17.60;99.90
31133;DHT22;17779;50.942;4.026;2022-07-29T03:45:36;17.70;99.90
31133;DHT22;17779;50.942;4.026;2022-07-29T03:48:05;17.60;99.90
31133;DHT22;17779;50.942;4.026;2022-07-29T03:50:32;17.30;99.90
31133;DHT22;17779;50.942;4.026;2022-07-29T03:52:58;16.90;99.90
31133;DHT22;17779;50.942;4.026;2022-07-29T03:55:25;16.80;99.90
31133;DHT22;17779;50.942;4.026;2022-07-29T03:57:51;16.70;99.90
31133;DHT22;17779;50.942;4.026;2022-07-29T04:00:17;16.50;99.90
31133;DHT22;17779;50.942;4.026;2022-07-29T04:02:44;16.50;99.90
31133;DHT22;17779;50.942;4.026;2022-07-29T04:05:14;16.40;99.90
31133;DHT22;17779;50.942;4.026;2022-07-29T04:07:42;16.30;99.90
31133;DHT22;17779;50.942;4.026;2022-07-29T04:10:08;16.20;99.90
31133;DHT22;17779;50.942;4.026;2022-07-29T04:12:34;16.30;99.90
31133;DHT22;17779;50.942;4.026;2022-07-29T04:15:01;16.30;99.90
31133;DHT22;17779;50.942;4.026;2022-07-29T04:17:26;16.30;99.90
31133;DHT22;17779;50.942;4.026;2022-07-29T04:19:52;16.30;99.90
31133;DHT22;17779;50.942;4.026;2022-07-29T04:22:18;16.30;99.90
31133;DHT22;17779;50.942;4.026;2022-07-29T04:24:44;16.30;99.90
31133;DHT22;17779;50.942;4.026;2022-07-29T04:27:10;16.30;99.90
31133;DHT22;17779;50.942;4.026;2022-07-29T04:29:36;16.30;99.90
31133;DHT22;17779;50.942;4.026;2022-07-29T04:32:02;16.30;99.90
31133;DHT22;17779;50.942;4.026;2022-07-29T04:34:27;16.30;99.90
31133;DHT22;17779;50.942;4.026;2022-07-29T04:36:53;16.50;99.90
31133;DHT22;17779;50.942;4.026;2022-07-29T04:39:19;16.50;99.90
31133;DHT22;17779;50.942;4.026;2022-07-29T04:41:45;16.60;99.90
31133;DHT22;17779;50.942;4.026;2022-07-29T04:44:11;16.60;99.90
31133;DHT22;17779;50.942;4.026;2022-07-29T04:46:37;16.80;99.90
31133;DHT22;17779;50.942;4.026;2022-07-29T04:49:03;17.00;99.90
31133;DHT22;17779;50.942;4.026;2022-07-29T04:51:28;17.00;99.90
31133;DHT22;17779;50.942;4.026;2022-07-29T04:53:54;16.90;99.90
31133;DHT22;17779;50.942;4.026;2022-07-29T04:56:20;17.10;99.90
31133;DHT22;17779;50.942;4.026;2022-07-29T04:58:46;17.20;99.90
31133;DHT22;17779;50.942;4.026;2022-07-29T05:01:11;17.30;99.90
31133;DHT22;17779;50.942;4.026;2022-07-29T05:03:37;17.40;99.90
31133;DHT22;17779;50.942;4.026;2022-07-29T05:06:06;17.40;99.90
31133;DHT22;17779;50.942;4.026;2022-07-29T05:08:31;17.30;99.90
31133;DHT22;17779;50.942;4.026;2022-07-29T05:10:58;17.30;99.90
31133;DHT22;17779;50.942;4.026;2022-07-29T05:13:24;17.30;99.90
31133;DHT22;17779;50.942;4.026;2022-07-29T05:15:50;17.40;99.90
31133;DHT22;17779;50.942;4.026;2022-07-29T05:18:15;17.50;99.90
31133;DHT22;17779;50.942;4.026;2022-07-29T05:20:41;17.60;99.90
31133;DHT22;17779;50.942;4.026;2022-07-29T05:23:08;17.60;99.90
31133;DHT22;17779;50.942;4.026;2022-07-29T05:25:34;17.50;99.90
31133;DHT22;17779;50.942;4.026;2022-07-29T05:28:00;17.50;99.90
31133;DHT22;17779;50.942;4.026;2022-07-29T05:30:26;17.60;99.90
31133;DHT22;17779;50.942;4.026;2022-07-29T05:32:51;17.60;99.90
31133;DHT22;17779;50.942;4.026;2022-07-29T05:35:17;17.50;99.90
31133;DHT22;17779;50.942;4.026;2022-07-29T05:37:43;17.60;99.90
31133;DHT22;17779;50.942;4.026;2022-07-29T05:40:09;17.60;99.90
31133;DHT22;17779;50.942;4.026;2022-07-29T05:42:35;17.60;99.90
31133;DHT22;17779;50.942;4.026;2022-07-29T05:45:01;17.60;99.90
31133;DHT22;17779;50.942;4.026;2022-07-29T05:47:27;17.70;99.90
31133;DHT22;17779;50.942;4.026;2022-07-29T05:49:53;17.60;99.90
31133;DHT22;17779;50.942;4.026;2022-07-29T05:52:19;17.70;99.90
31133;DHT22;17779;50.942;4.026;2022-07-29T05:54:45;17.70;99.90
31133;DHT22;17779;50.942;4.026;2022-07-29T05:57:17;17.70;99.90
31133;DHT22;17779;50.942;4.026;2022-07-29T05:59:43;17.90;99.90
31133;DHT22;17779;50.942;4.026;2022-07-29T06:02:09;18.00;99.90
31133;DHT22;17779;50.942;4.026;2022-07-29T06:04:35;18.10;99.90
31133;DHT22;17779;50.942;4.026;2022-07-29T06:07:01;18.10;99.90
31133;DHT22;17779;50.942;4.026;2022-07-29T06:09:27;18.00;99.90
31133;DHT22;17779;50.942;4.026;2022-07-29T06:11:53;18.10;99.90
31133;DHT22;17779;50.942;4.026;2022-07-29T06:14:19;18.10;99.90
31133;DHT22;17779;50.942;4.026;2022-07-29T06:16:47;18.40;99.90
31133;DHT22;17779;50.942;4.026;2022-07-29T06:19:12;18.60;99.90
31133;DHT22;17779;50.942;4.026;2022-07-29T06:21:42;18.70;99.90
31133;DHT22;17779;50.942;4.026;2022-07-29T06:24:07;18.80;99.90
31133;DHT22;17779;50.942;4.026;2022-07-29T06:26:34;18.90;99.90
31133;DHT22;17779;50.942;4.026;2022-07-29T06:29:00;19.10;99.90
31133;DHT22;17779;50.942;4.026;2022-07-29T06:31:26;19.20;99.90
31133;DHT22;17779;50.942;4.026;2022-07-29T06:33:53;19.30;99.90
31133;DHT22;17779;50.942;4.026;2022-07-29T06:36:18;19.60;99.90
31133;DHT22;17779;50.942;4.026;2022-07-29T06:38:44;19.70;99.90
31133;DHT22;17779;50.942;4.026;2022-07-29T06:41:10;19.80;99.90
31133;DHT22;17779;50.942;4.026;2022-07-29T06:43:38;19.90;99.90
31133;DHT22;17779;50.942;4.026;2022-07-29T06:46:07;20.10;99.90
31133;DHT22;17779;50.942;4.026;2022-07-29T06:48:34;20.20;99.90
31133;DHT22;17779;50.942;4.026;2022-07-29T06:51:00;20.20;99.90
31133;DHT22;17779;50.942;4.026;2022-07-29T06:53:26;20.30;99.90
31133;DHT22;17779;50.942;4.026;2022-07-29T06:55:52;20.60;99.90
31133;DHT22;17779;50.942;4.026;2022-07-29T06:58:18;20.90;99.90
31133;DHT22;17779;50.942;4.026;2022-07-29T07:00:48;21.30;99.90
31133;DHT22;17779;50.942;4.026;2022-07-29T07:03:15;21.30;99.90
31133;DHT22;17779;50.942;4.026;2022-07-29T07:05:40;21.80;99.90
31133;DHT22;17779;50.942;4.026;2022-07-29T07:08:06;23.10;99.90
31133;DHT22;17779;50.942;4.026;2022-07-29T07:10:32;24.20;99.90
31133;DHT22;17779;50.942;4.026;2022-07-29T07:12:58;25.60;99.90
31133;DHT22;17779;50.942;4.026;2022-07-29T07:15:24;26.50;99.90
31133;DHT22;17779;50.942;4.026;2022-07-29T07:17:50;27.60;99.90
31133;DHT22;17779;50.942;4.026;2022-07-29T07:20:16;27.80;99.90
31133;DHT22;17779;50.942;4.026;2022-07-29T07:22:42;28.60;99.90
31133;DHT22;17779;50.942;4.026;2022-07-29T07:25:08;29.10;99.90
31133;DHT22;17779;50.942;4.026;2022-07-29T07:27:34;30.00;99.70
31133;DHT22;17779;50.942;4.026;2022-07-29T07:30:00;31.30;97.60
31133;DHT22;17779;50.942;4.026;2022-07-29T07:32:26;32.80;95.30
31133;DHT22;17779;50.942;4.026;2022-07-29T07:34:52;33.60;92.30
31133;DHT22;17779;50.942;4.026;2022-07-29T07:37:17;32.30;92.00
31133;DHT22;17779;50.942;4.026;2022-07-29T07:39:45;31.10;93.20
31133;DHT22;17779;50.942;4.026;2022-07-29T07:42:11;30.50;93.90
31133;DHT22;17779;50.942;4.026;2022-07-29T07:44:39;29.50;95.10
31133;DHT22;17779;50.942;4.026;2022-07-29T07:47:05;29.10;96.10
31133;DHT22;17779;50.942;4.026;2022-07-29T07:49:30;29.80;95.40
31133;DHT22;17779;50.942;4.026;2022-07-29T07:51:56;30.60;95.00
31133;DHT22;17779;50.942;4.026;2022-07-29T07:54:22;30.40;94.70
31133;DHT22;17779;50.942;4.026;2022-07-29T07:56:48;31.50;94.00
31133;DHT22;17779;50.942;4.026;2022-07-29T07:59:15;32.30;93.20
31133;DHT22;17779;50.942;4.026;2022-07-29T08:01:41;33.00;92.00
31133;DHT22;17779;50.942;4.026;2022-07-29T08:04:06;32.50;91.70
31133;DHT22;17779;50.942;4.026;2022-07-29T08:06:33;33.30;91.10
31133;DHT22;17779;50.942;4.026;2022-07-29T08:09:00;34.20;90.00
31133;DHT22;17779;50.942;4.026;2022-07-29T08:11:26;35.40;87.50
31133;DHT22;17779;50.942;4.026;2022-07-29T08:13:52;34.50;85.80
31133;DHT22;17779;50.942;4.026;2022-07-29T08:16:18;34.40;85.40
31133;DHT22;17779;50.942;4.026;2022-07-29T08:18:45;33.30;87.20
31133;DHT22;17779;50.942;4.026;2022-07-29T08:21:11;33.10;88.60
31133;DHT22;17779;50.942;4.026;2022-07-29T08:23:37;33.70;87.00
31133;DHT22;17779;50.942;4.026;2022-07-29T08:26:11;34.40;85.00
31133;DHT22;17779;50.942;4.026;2022-07-29T08:28:38;35.20;84.00
31133;DHT22;17779;50.942;4.026;2022-07-29T08:31:05;34.30;85.40
31133;DHT22;17779;50.942;4.026;2022-07-29T08:33:31;33.40;86.20
31133;DHT22;17779;50.942;4.026;2022-07-29T08:35:57;32.60;86.70
31133;DHT22;17779;50.942;4.026;2022-07-29T08:38:23;32.90;86.60
31133;DHT22;17779;50.942;4.026;2022-07-29T08:40:49;33.80;84.80
31133;DHT22;17779;50.942;4.026;2022-07-29T08:43:14;34.60;83.20
31133;DHT22;17779;50.942;4.026;2022-07-29T08:45:41;34.90;80.90
31133;DHT22;17779;50.942;4.026;2022-07-29T08:48:08;34.80;81.10
31133;DHT22;17779;50.942;4.026;2022-07-29T08:50:35;35.20;80.40
31133;DHT22;17779;50.942;4.026;2022-07-29T08:53:00;35.00;80.40
31133;DHT22;17779;50.942;4.026;2022-07-29T08:55:27;34.30;81.30
31133;DHT22;17779;50.942;4.026;2022-07-29T08:57:53;35.60;80.10
31133;DHT22;17779;50.942;4.026;2022-07-29T09:00:19;36.00;78.50
31133;DHT22;17779;50.942;4.026;2022-07-29T09:02:47;34.90;78.80
31133;DHT22;17779;50.942;4.026;2022-07-29T09:05:17;35.50;79.40
31133;DHT22;17779;50.942;4.026;2022-07-29T09:07:43;35.70;76.70
31133;DHT22;17779;50.942;4.026;2022-07-29T09:10:12;34.40;78.10
31133;DHT22;17779;50.942;4.026;2022-07-29T09:12:40;35.00;78.10
31133;DHT22;17779;50.942;4.026;2022-07-29T09:15:06;36.30;76.30
31133;DHT22;17779;50.942;4.026;2022-07-29T09:17:38;35.90;75.30
31133;DHT22;17779;50.942;4.026;2022-07-29T09:20:08;35.80;74.80
31133;DHT22;17779;50.942;4.026;2022-07-29T09:22:33;36.30;73.00
31133;DHT22;17779;50.942;4.026;2022-07-29T09:24:59;35.60;73.60
31133;DHT22;17779;50.942;4.026;2022-07-29T09:27:25;34.60;74.80
31133;DHT22;17779;50.942;4.026;2022-07-29T09:30:03;35.30;75.00
31133;DHT22;17779;50.942;4.026;2022-07-29T09:32:29;34.30;76.00
31133;DHT22;17779;50.942;4.026;2022-07-29T09:37:39;35.40;73.90
31133;DHT22;17779;50.942;4.026;2022-07-29T09:40:12;36.00;73.60
31133;DHT22;17779;50.942;4.026;2022-07-29T09:42:39;35.30;73.90
31133;DHT22;17779;50.942;4.026;2022-07-29T09:45:05;35.00;74.30
31133;DHT22;17779;50.942;4.026;2022-07-29T09:47:41;35.70;73.70
31133;DHT22;17779;50.942;4.026;2022-07-29T09:50:07;35.50;74.00
31133;DHT22;17779;50.942;4.026;2022-07-29T09:52:41;35.60;74.20
31133;DHT22;17779;50.942;4.026;2022-07-29T09:55:09;35.30;73.60
31133;DHT22;17779;50.942;4.026;2022-07-29T09:57:35;36.00;72.70
31133;DHT22;17779;50.942;4.026;2022-07-29T10:00:05;35.80;71.70
31133;DHT22;17779;50.942;4.026;2022-07-29T10:02:37;35.60;71.10
31133;DHT22;17779;50.942;4.026;2022-07-29T10:05:04;35.40;70.60
31133;DHT22;17779;50.942;4.026;2022-07-29T10:07:49;35.40;71.50
31133;DHT22;17779;50.942;4.026;2022-07-29T10:10:21;35.80;70.60
31133;DHT22;17779;50.942;4.026;2022-07-29T10:12:58;35.60;70.70
31133;DHT22;17779;50.942;4.026;2022-07-29T10:15:26;36.00;70.90
31133;DHT22;17779;50.942;4.026;2022-07-29T10:17:52;36.80;69.30
31133;DHT22;17779;50.942;4.026;2022-07-29T10:20:19;37.20;67.10
31133;DHT22;17779;50.942;4.026;2022-07-29T10:22:46;36.80;68.60
31133;DHT22;17779;50.942;4.026;2022-07-29T10:25:12;36.10;69.40
31133;DHT22;17779;50.942;4.026;2022-07-29T10:27:38;36.50;69.30
31133;DHT22;17779;50.942;4.026;2022-07-29T10:30:05;37.20;68.50
31133;DHT22;17779;50.942;4.026;2022-07-29T10:32:34;36.00;66.30
31133;DHT22;17779;50.942;4.026;2022-07-29T10:35:11;35.00;70.80
31133;DHT22;17779;50.942;4.026;2022-07-29T10:40:36;37.40;67.00
31133;DHT22;17779;50.942;4.026;2022-07-29T10:43:29;36.50;68.60
31133;DHT22;17779;50.942;4.026;2022-07-29T10:45:55;37.40;66.10
31133;DHT22;17779;50.942;4.026;2022-07-29T10:48:21;37.60;64.70
31133;DHT22;17779;50.942;4.026;2022-07-29T10:50:54;37.70;64.10
31133;DHT22;17779;50.942;4.026;2022-07-29T10:53:23;36.20;66.10
31133;DHT22;17779;50.942;4.026;2022-07-29T10:55:50;35.80;66.90
31133;DHT22;17779;50.942;4.026;2022-07-29T10:58:17;36.90;64.20
31133;DHT22;17779;50.942;4.026;2022-07-29T11:00:44;37.80;64.20
31133;DHT22;17779;50.942;4.026;2022-07-29T11:03:37;39.60;61.60
31133;DHT22;17779;50.942;4.026;2022-07-29T11:05:56;41.00;58.80
31133;DHT22;17779;50.942;4.026;2022-07-29T11:08:22;38.30;60.40
31133;DHT22;17779;50.942;4.026;2022-07-29T11:10:52;38.60;60.60
31133;DHT22;17779;50.942;4.026;2022-07-29T11:16:18;37.50;60.10
31133;DHT22;17779;50.942;4.026;2022-07-29T11:21:35;38.10;59.20
31133;DHT22;17779;50.942;4.026;2022-07-29T11:24:16;38.60;58.30
31133;DHT22;17779;50.942;4.026;2022-07-29T11:26:42;39.60;57.80
31133;DHT22;17779;50.942;4.026;2022-07-29T11:31:42;40.40;56.20
31133;DHT22;17779;50.942;4.026;2022-07-29T11:34:18;39.40;56.30
31133;DHT22;17779;50.942;4.026;2022-07-29T11:39:29;36.30;59.90
31133;DHT22;17779;50.942;4.026;2022-07-29T11:42:36;37.60;58.90
31133;DHT22;17779;50.942;4.026;2022-07-29T11:44:54;35.50;60.20
31133;DHT22;17779;50.942;4.026;2022-07-29T11:47:24;34.10;61.90
31133;DHT22;17779;50.942;4.026;2022-07-29T11:49:50;33.10;65.30
31133;DHT22;17779;50.942;4.026;2022-07-29T11:52:16;32.00;66.60
31133;DHT22;17779;50.942;4.026;2022-07-29T11:54:42;30.70;68.70
31133;DHT22;17779;50.942;4.026;2022-07-29T11:57:13;30.00;70.40
31133;DHT22;17779;50.942;4.026;2022-07-29T11:59:40;29.90;71.10
31133;DHT22;17779;50.942;4.026;2022-07-29T12:02:06;29.40;71.80
31133;DHT22;17779;50.942;4.026;2022-07-29T12:04:32;29.30;71.90
31133;DHT22;17779;50.942;4.026;2022-07-29T12:06:59;29.30;72.60
31133;DHT22;17779;50.942;4.026;2022-07-29T12:09:25;29.50;72.90
31133;DHT22;17779;50.942;4.026;2022-07-29T12:11:57;30.00;72.10
31133;DHT22;17779;50.942;4.026;2022-07-29T12:14:31;30.40;70.60
31133;DHT22;17779;50.942;4.026;2022-07-29T12:16:57;30.80;69.50
31133;DHT22;17779;50.942;4.026;2022-07-29T12:19:23;31.50;68.80
31133;DHT22;17779;50.942;4.026;2022-07-29T12:21:50;31.90;69.10
31133;DHT22;17779;50.942;4.026;2022-07-29T12:24:16;32.30;68.40
31133;DHT22;17779;50.942;4.026;2022-07-29T12:26:48;33.60;66.00
31133;DHT22;17779;50.942;4.026;2022-07-29T12:29:18;33.90;65.50
31133;DHT22;17779;50.942;4.026;2022-07-29T12:34:13;34.90;63.70
31133;DHT22;17779;50.942;4.026;2022-07-29T12:36:40;35.90;61.70
31133;DHT22;17779;50.942;4.026;2022-07-29T12:39:06;36.30;60.90
31133;DHT22;17779;50.942;4.026;2022-07-29T12:41:34;36.10;61.30
31133;DHT22;17779;50.942;4.026;2022-07-29T12:44:00;34.50;62.20
31133;DHT22;17779;50.942;4.026;2022-07-29T12:46:26;32.40;65.70
31133;DHT22;17779;50.942;4.026;2022-07-29T12:48:52;32.50;65.60
31133;DHT22;17779;50.942;4.026;2022-07-29T12:51:28;34.00;63.80
31133;DHT22;17779;50.942;4.026;2022-07-29T12:54:02;36.70;61.60
31133;DHT22;17779;50.942;4.026;2022-07-29T12:56:29;38.40;59.00
31133;DHT22;17779;50.942;4.026;2022-07-29T12:58:56;38.30;57.60
31133;DHT22;17779;50.942;4.026;2022-07-29T13:01:21;38.80;57.10
31133;DHT22;17779;50.942;4.026;2022-07-29T13:03:54;38.20;57.40
31133;DHT22;17779;50.942;4.026;2022-07-29T13:11:37;33.10;62.70
31133;DHT22;17779;50.942;4.026;2022-07-29T13:14:04;31.20;66.50
31133;DHT22;17779;50.942;4.026;2022-07-29T13:16:29;31.10;67.00
31133;DHT22;17779;50.942;4.026;2022-07-29T13:19:05;30.70;68.80
31133;DHT22;17779;50.942;4.026;2022-07-29T13:21:31;29.90;70.50
31133;DHT22;17779;50.942;4.026;2022-07-29T13:23:57;29.40;71.30
31133;DHT22;17779;50.942;4.026;2022-07-29T13:26:22;29.40;72.10
31133;DHT22;17779;50.942;4.026;2022-07-29T13:28:48;29.40;72.40
31133;DHT22;17779;50.942;4.026;2022-07-29T13:31:15;28.80;71.80
31133;DHT22;17779;50.942;4.026;2022-07-29T13:33:41;28.40;73.40
31133;DHT22;17779;50.942;4.026;2022-07-29T13:36:06;28.40;73.10
31133;DHT22;17779;50.942;4.026;2022-07-29T13:38:33;28.50;73.00
31133;DHT22;17779;50.942;4.026;2022-07-29T13:41:00;28.90;73.00
31133;DHT22;17779;50.942;4.026;2022-07-29T13:43:26;29.40;71.80
31133;DHT22;17779;50.942;4.026;2022-07-29T13:45:51;29.50;71.90
31133;DHT22;17779;50.942;4.026;2022-07-29T13:48:17;29.40;72.00
31133;DHT22;17779;50.942;4.026;2022-07-29T13:50:43;29.80;72.80
31133;DHT22;17779;50.942;4.026;2022-07-29T13:53:09;29.60;73.50
31133;DHT22;17779;50.942;4.026;2022-07-29T13:55:35;29.50;73.90
31133;DHT22;17779;50.942;4.026;2022-07-29T13:58:01;29.60;73.70
31133;DHT22;17779;50.942;4.026;2022-07-29T14:00:26;29.40;73.60
31133;DHT22;17779;50.942;4.026;2022-07-29T14:02:52;29.30;73.90
31133;DHT22;17779;50.942;4.026;2022-07-29T14:05:18;29.30;73.10
31133;DHT22;17779;50.942;4.026;2022-07-29T14:07:44;29.40;73.70
31133;DHT22;17779;50.942;4.026;2022-07-29T14:10:09;29.00;75.10
31133;DHT22;17779;50.942;4.026;2022-07-29T14:12:35;28.70;75.50
31133;DHT22;17779;50.942;4.026;2022-07-29T14:15:01;28.70;76.00
31133;DHT22;17779;50.942;4.026;2022-07-29T14:17:27;28.50;75.80
31133;DHT22;17779;50.942;4.026;2022-07-29T14:19:54;28.40;75.60
31133;DHT22;17779;50.942;4.026;2022-07-29T14:22:21;28.40;75.80
31133;DHT22;17779;50.942;4.026;2022-07-29T14:24:47;28.60;75.20
31133;DHT22;17779;50.942;4.026;2022-07-29T14:27:14;28.30;76.30
31133;DHT22;17779;50.942;4.026;2022-07-29T14:29:40;28.00;77.00
31133;DHT22;17779;50.942;4.026;2022-07-29T14:32:05;28.00;76.70
31133;DHT22;17779;50.942;4.026;2022-07-29T14:34:32;27.90;77.00
31133;DHT22;17779;50.942;4.026;2022-07-29T14:36:58;28.10;76.40
31133;DHT22;17779;50.942;4.026;2022-07-29T14:39:25;28.00;76.80
31133;DHT22;17779;50.942;4.026;2022-07-29T14:41:50;28.30;77.10
31133;DHT22;17779;50.942;4.026;2022-07-29T14:44:17;28.40;77.30
31133;DHT22;17779;50.942;4.026;2022-07-29T14:46:43;28.20;76.90
31133;DHT22;17779;50.942;4.026;2022-07-29T14:49:08;28.10;77.70
31133;DHT22;17779;50.942;4.026;2022-07-29T14:51:34;28.20;77.90
31133;DHT22;17779;50.942;4.026;2022-07-29T14:54:00;28.10;77.40
31133;DHT22;17779;50.942;4.026;2022-07-29T14:56:26;28.30;77.20
31133;DHT22;17779;50.942;4.026;2022-07-29T14:58:52;28.60;76.50
31133;DHT22;17779;50.942;4.026;2022-07-29T15:01:18;29.00;75.60
31133;DHT22;17779;50.942;4.026;2022-07-29T15:03:44;29.20;74.60
31133;DHT22;17779;50.942;4.026;2022-07-29T15:06:09;29.10;75.20
31133;DHT22;17779;50.942;4.026;2022-07-29T15:08:35;28.60;76.50
31133;DHT22;17779;50.942;4.026;2022-07-29T15:11:01;28.50;76.50
31133;DHT22;17779;50.942;4.026;2022-07-29T15:13:27;28.70;76.00
31133;DHT22;17779;50.942;4.026;2022-07-29T15:15:53;29.00;75.30
31133;DHT22;17779;50.942;4.026;2022-07-29T15:18:18;28.80;74.70
31133;DHT22;17779;50.942;4.026;2022-07-29T15:20:44;28.70;75.10
31133;DHT22;17779;50.942;4.026;2022-07-29T15:23:11;28.60;76.50
31133;DHT22;17779;50.942;4.026;2022-07-29T15:25:40;28.40;78.00
31133;DHT22;17779;50.942;4.026;2022-07-29T15:28:11;28.20;78.70
31133;DHT22;17779;50.942;4.026;2022-07-29T15:30:37;28.10;78.30
31133;DHT22;17779;50.942;4.026;2022-07-29T15:33:06;27.90;79.50
31133;DHT22;17779;50.942;4.026;2022-07-29T15:35:33;27.90;79.70
31133;DHT22;17779;50.942;4.026;2022-07-29T15:37:59;27.60;80.30
31133;DHT22;17779;50.942;4.026;2022-07-29T15:40:25;27.70;80.50
31133;DHT22;17779;50.942;4.026;2022-07-29T15:42:50;27.70;80.20
31133;DHT22;17779;50.942;4.026;2022-07-29T15:45:16;27.80;80.30
31133;DHT22;17779;50.942;4.026;2022-07-29T15:47:45;27.70;81.00
31133;DHT22;17779;50.942;4.026;2022-07-29T15:50:11;27.30;81.00
31133;DHT22;17779;50.942;4.026;2022-07-29T15:52:40;27.40;81.60
31133;DHT22;17779;50.942;4.026;2022-07-29T15:55:06;27.40;81.30
31133;DHT22;17779;50.942;4.026;2022-07-29T15:57:32;27.20;82.20
31133;DHT22;17779;50.942;4.026;2022-07-29T15:59:58;27.10;82.10